Logo AVAMET
Benvolgut visitant, si us plau, ingressa Recuperar contrasenya

Fontanars poble

Dades diàries. Acumulats / Últims 30 dies disponibles

Data Temperatura (°C) Humitat rel. (%) Pressió rel. (hPa) Vent (km/h) Precipi-
tació (mm)
Mínima Mitjana Màxima Mínima Mitjana Màxima Mínima Mitjana Màxima Predom. Mitjana Ràfega
màxima
Mínima Mitjana Màxima Mínima Mitjana Màxima
Dades mensuals acumulades fins l'últim dia disponible
06/2018 9,1 12,9 15,1 19,2 19,4 25,6 30,9   4,2 43,5 48,0
Dades anuals acumulades fins l'últim dia disponible
2018 -4,8 6,4 15,1 11,4 4,8 16,9 30,9   7,5 82,1 214,2
Últims 30 dies disponibles
19-06-2018 13,6     21,5     28,6 S 2,4 22,5 0,0
18-06-2018 14,6     21,8     28,2 ENE 3,9 29,0 0,0
17-06-2018 13,9     22,3     30,9 ESE 2,3 19,3 0,0
16-06-2018 14,8     21,6     30,9 E 3,5 22,5 0,0
15-06-2018 12,8     21,1     30,1 WNW 2,3 20,9 0,0
14-06-2018 12,8     19,6     26,3 E 3,5 27,4 0,0
13-06-2018 12,9     20,4     27,1 WNW 7,1 37,0 0,0
12-06-2018 13,2     19,9     25,8 WNW 5,6 35,4 0,0
11-06-2018 13,6     19,1     24,0 WNW 5,6 30,6 0,0
10-06-2018 13,7     19,2     24,1 WNW 3,9 25,7 0,2
09-06-2018 13,2     19,4     26,4 W 2,9 25,7 1,2
08-06-2018 13,6     20,5     26,9 S 3,9 30,6 0,0
07-06-2018 9,1     16,7     24,3 WNW 3,9 29,0 0,2
06-06-2018 10,7     15,8     19,8 W 5,0 33,8 7,2
05-06-2018 13,4     16,7     21,2 W 4,5 27,4 0,6
04-06-2018 15,1     19,6     24,1 WNW 5,6 33,8 0,0
03-06-2018 10,3     15,8     23,3 W 4,2 43,5 35,0
02-06-2018 13,1     15,6     19,4 E 4,8 25,7 3,6
01-06-2018 11,6     18,3     25,9 S 4,2 32,2 0,0
31-05-2018 12,1     18,9     25,5 S 3,7 29,0 0,0
30-05-2018 11,4     16,7     22,3 WNW 4,8 37,0 0,0
29-05-2018 12,4     16,2     21,1 E 3,9 33,8 1,2
28-05-2018 10,8     17,1     24,6 W 3,5 30,6 0,0
27-05-2018 13,8     17,7     25,7 W 3,5 37,0 0,0
26-05-2018 13,0     17,4     22,5 ENE 6,4 29,0 0,0
25-05-2018 13,8     15,9     19,8 NE 7,1 30,6 0,2
24-05-2018 12,5     16,4     22,2 ENE 7,6 32,2 0,0
23-05-2018 10,6     19,1     27,8 ESE 2,3 27,4 0,0
22-05-2018 10,8     16,8     25,6 W 3,5 51,5 0,0
21-05-2018 8,2     14,8     23,2 NNE 2,1 27,4 12,6
Últims 13 mesos disponibles
05/2018 3,5 9,5 13,8 15,5 15,6 22,1 27,8 4,5 51,5 31,6
04/2018 3,1 7,4 11,2 12,2 8,5 17,6 26,5 8,7 75,6 18,4
03/2018 -1,9 5,8 11,0 9,8 7,2 14,5 22,7 12,0 82,1 20,0
02/2018 -4,8 1,5 7,3 6,1 4,8 11,2 19,6 6,0 56,3 32,0
01/2018 -1,3 3,5 9,6 7,9 8,7 13,2 20,7 8,1 69,2 64,2
12/2017 -4,2 2,6 10,5 6,8 6,1 11,9 16,2 8,1 90,1 16,0
11/2017 -1,4 4,2 9,4 10,2 7,8 17,4 22,8 2,8 45,1 9,8
10/2017 7,5 11,6 16,2 17,1 17,1 24,6 29,8 2,8 46,7 9,8
09/2017 10,5 14,0 19,1 19,7 19,1 26,6 31,9 4,3 41,8 3,2
08/2017 13,0 17,7 20,9 23,5 21,7 30,3 37,3 4,2 48,3 37,2
07/2017 11,3 17,7 20,4 24,1 22,4 32,1 40,9 4,2 41,8 21,8
06/2017 9,7 15,9 21,3 23,0 21,3 30,6 38,1 4,1 66,0 13,6
05/2017 5,9 10,5 12,8 17,4 16,7 24,5 32,4 4,8 53,1 1,8
Tots els anys disponibles
2017 -5,9 9,5 21,3 15,1 1,4 21,6 40,9 5,2 90,1 309,0
2016 -3,3 9,7 26,1 15,1 6,8 21,2 38,4 5,8 85,3 512,8
2015 -4,7 10,0 21,9 15,4 4,6 21,8 40,3 5,3 91,7 332,4
2014 -3,3 10,1 20,9 15,4 5,2 21,6 36,9 6,6 85,3 328,0
2013 -3,7 9,0 12,7 14,3 16,1 20,4 36,8 6,8 90,1 417,0
2012 -7,9 9,2 15,6 14,9 18,0 21,5 41,8 5,7 77,2 467,0
2011 -6,5 10,0 20,1 15,0 1,7 21,1 37,8 5,3 80,5 400,8
2010 -5,7 9,2 22,4 14,0 -1,2 19,7 38,9 6,8 88,5 495,2
Temperatura (°C)
Humitat relativa (%)
Velocitat del vent (km/h) i direcció (°)
Pressió (hPa) i precipitació (mm)
Nota sobre les dades: s'avisa a l'usuari de la provisionalitat i no oficialitat d'aquestes dades
Logo AVAMET blanc
Llicència de Creative CommonsLa web d'AVAMET i els seus continguts estan subjectes a una llicència de
Reconeixement - No Comercial - Compartir igual
Properes estacions:  Quart de Poblet - Centre (Aj. soci), Navalón - ADENE (Soci), Borriol - Vall del Morico (Soci), Bicorp - Camping los Botijos (AVAMET), Pilar de la Horadada - Pinar de Campoverde (AVAMET), Manises - La Presa (AVAMET), Alberic - Urb. San Cristòbal (Inforatge), Sagunt - Policia Local (Inforatge)  - - - - -   Últimes estacions: Alzira - Mulata Alzicoop (soci), Fuenterrobles (Aj. soci), Santa Pola - Gran Alacant  (Aj. soci), Carlet - GP Suministros (Soci), Les Useres (Aj. soci), Castelló de la Plana - IES Sos Baynat (Soci) - - - - - - - - - - - - Properes estacions:  Quart de Poblet - Centre (Aj. soci), Navalón - ADENE (Soci), Borriol - Vall del Morico (Soci), Bicorp - Camping los Botijos (AVAMET), Pilar de la Horadada - Pinar de Campoverde (AVAMET), Manises - La Presa (AVAMET), Alberic - Urb. San Cristòbal (Inforatge), Sagunt - Policia Local (Inforatge)  - - - - -   Últimes estacions: Alzira - Mulata Alzicoop (soci), Fuenterrobles (Aj. soci), Santa Pola - Gran Alacant  (Aj. soci), Carlet - GP Suministros (Soci), Les Useres (Aj. soci), Castelló de la Plana - IES Sos Baynat (Soci)